createdAt,value
2018-03-24T00:02:25.567Z,63.54
2018-03-24T00:04:51.519Z,62.28
2018-03-24T00:07:17.471Z,60.05
2018-03-24T00:09:43.415Z,60.37
2018-03-24T00:12:09.380Z,61.81
2018-03-24T00:14:35.326Z,63.63
2018-03-24T00:17:01.293Z,64.91
2018-03-24T00:19:27.264Z,66.12
2018-03-24T00:21:53.232Z,65.86
2018-03-24T00:24:19.184Z,63.00
2018-03-24T00:26:45.130Z,62.56
2018-03-24T00:29:11.087Z,63.39
2018-03-24T00:31:37.027Z,64.68
2018-03-24T00:34:02.976Z,65.49
2018-03-24T00:36:28.911Z,65.01
2018-03-24T00:38:54.897Z,62.46
2018-03-24T00:41:20.849Z,63.85
2018-03-24T00:43:46.817Z,62.58
2018-03-24T00:46:12.751Z,62.64
2018-03-24T00:48:38.693Z,65.31
2018-03-24T00:51:04.652Z,65.09
2018-03-24T00:53:30.619Z,64.97
2018-03-24T00:55:56.569Z,64.62
2018-03-24T00:58:22.517Z,65.74
2018-03-24T01:00:48.447Z,66.22
2018-03-24T01:03:14.391Z,67.89
2018-03-24T01:05:40.351Z,67.02
2018-03-24T01:08:06.297Z,66.12
2018-03-24T01:10:32.234Z,66.33
2018-03-24T01:12:58.173Z,66.20
2018-03-24T01:15:24.125Z,66.96
2018-03-24T01:17:50.123Z,66.46
2018-03-24T01:20:16.081Z,66.18
2018-03-24T01:22:42.029Z,65.55
2018-03-24T01:25:07.959Z,66.56
2018-03-24T01:27:33.937Z,63.04
2018-03-24T01:29:59.881Z,64.28
2018-03-24T01:32:25.817Z,65.23
2018-03-24T01:34:51.770Z,66.02
2018-03-24T01:37:17.730Z,67.44
2018-03-24T01:39:43.659Z,67.11
2018-03-24T01:42:09.628Z,65.23
2018-03-24T01:44:35.581Z,65.33
2018-03-24T01:47:01.614Z,65.61
2018-03-24T01:49:28.652Z,66.33
2018-03-24T01:51:54.591Z,65.31
2018-03-24T01:54:20.551Z,62.83
2018-03-24T01:56:46.518Z,63.18
2018-03-24T01:59:12.458Z,65.31
2018-03-24T02:01:38.399Z,66.39
2018-03-24T02:04:04.326Z,63.78
2018-03-24T02:06:30.307Z,65.44
2018-03-24T02:08:56.233Z,65.68
2018-03-24T02:11:22.196Z,65.88
2018-03-24T02:13:48.159Z,65.87
2018-03-24T02:16:14.199Z,63.08
2018-03-24T02:18:40.170Z,65.32
2018-03-24T02:21:06.109Z,65.83
2018-03-24T02:23:32.061Z,66.09
2018-03-24T02:25:57.988Z,63.93
2018-03-24T02:28:23.942Z,66.94
2018-03-24T02:30:49.896Z,68.33
2018-03-24T02:33:15.856Z,66.66
2018-03-24T02:35:41.810Z,66.94
2018-03-24T02:38:07.761Z,64.33
2018-03-24T02:40:33.701Z,64.69
2018-03-24T02:42:59.642Z,63.15
2018-03-24T02:45:25.578Z,61.37
2018-03-24T02:47:51.509Z,62.36
2018-03-24T02:50:17.439Z,64.12
2018-03-24T02:52:43.401Z,66.74
2018-03-24T02:55:09.352Z,66.64
2018-03-24T02:57:35.314Z,67.54
2018-03-24T03:00:01.277Z,67.68
2018-03-24T03:02:27.274Z,67.90
2018-03-24T03:04:53.238Z,68.17
2018-03-24T03:07:19.184Z,67.07
2018-03-24T03:09:45.152Z,69.48
2018-03-24T03:12:11.126Z,68.93
2018-03-24T03:14:37.058Z,65.91
2018-03-24T03:17:03.006Z,67.19
2018-03-24T03:19:28.968Z,66.87
2018-03-24T03:21:54.922Z,67.50
2018-03-24T03:24:20.860Z,67.24
2018-03-24T03:26:46.785Z,67.75
2018-03-24T03:29:12.714Z,68.78
2018-03-24T03:31:38.677Z,68.55
2018-03-24T03:34:04.626Z,65.10
2018-03-24T03:36:30.600Z,67.17
2018-03-24T03:38:56.548Z,66.93
2018-03-24T03:41:22.502Z,67.13
2018-03-24T03:43:48.443Z,67.19
2018-03-24T03:46:14.408Z,67.02
2018-03-24T03:48:40.381Z,66.51
2018-03-24T03:51:06.350Z,67.43
2018-03-24T03:53:32.301Z,67.62
2018-03-24T03:55:58.252Z,68.01
2018-03-24T03:58:24.199Z,68.74
2018-03-24T04:00:50.125Z,67.08
2018-03-24T04:03:16.094Z,66.41
2018-03-24T04:05:42.084Z,66.28
2018-03-24T04:08:08.063Z,67.03
2018-03-24T04:10:34.037Z,67.65
2018-03-24T04:12:59.993Z,68.52
2018-03-24T04:15:25.926Z,67.82
2018-03-24T04:17:51.875Z,67.99
2018-03-24T04:20:17.834Z,68.50
2018-03-24T04:22:43.786Z,69.05
2018-03-24T04:25:09.736Z,68.53
2018-03-24T04:27:35.710Z,69.25
2018-03-24T04:30:01.655Z,69.58
2018-03-24T04:32:27.586Z,68.85
2018-03-24T04:34:53.522Z,68.36
2018-03-24T04:37:19.454Z,67.01
2018-03-24T04:39:45.379Z,66.89
2018-03-24T04:42:11.322Z,67.88
2018-03-24T04:44:37.286Z,68.48
2018-03-24T04:47:03.234Z,68.51
2018-03-24T04:49:29.161Z,68.26
2018-03-24T04:51:55.148Z,68.00
2018-03-24T04:54:21.070Z,68.77
2018-03-24T04:56:46.998Z,69.47
2018-03-24T04:59:12.947Z,69.11
2018-03-24T05:01:38.902Z,68.58
2018-03-24T05:04:04.838Z,67.64
2018-03-24T05:06:30.816Z,69.86
2018-03-24T05:08:56.766Z,68.91
2018-03-24T05:11:22.724Z,68.16
2018-03-24T05:13:48.686Z,68.22
2018-03-24T05:16:14.634Z,67.66
2018-03-24T05:18:40.579Z,67.85
2018-03-24T05:21:06.538Z,67.91
2018-03-24T05:23:32.496Z,67.52
2018-03-24T05:25:58.454Z,68.04
2018-03-24T05:28:24.417Z,67.00
2018-03-24T05:30:50.348Z,66.55
2018-03-24T05:33:16.291Z,66.01
2018-03-24T05:35:42.273Z,66.87
2018-03-24T05:38:08.223Z,65.97
2018-03-24T05:40:34.150Z,66.90
2018-03-24T05:43:00.091Z,64.43
2018-03-24T05:45:26.043Z,65.10
2018-03-24T05:47:52.026Z,65.85
2018-03-24T05:50:17.966Z,65.18
2018-03-24T05:52:43.924Z,64.30
2018-03-24T05:55:09.901Z,63.47
2018-03-24T05:57:35.863Z,63.69
2018-03-24T06:00:01.830Z,64.52
2018-03-24T06:02:27.795Z,64.18
2018-03-24T06:04:53.750Z,63.14
2018-03-24T06:07:19.701Z,63.01
2018-03-24T06:09:45.631Z,63.68
2018-03-24T06:12:11.570Z,63.06
2018-03-24T06:14:37.503Z,63.26
2018-03-24T06:17:03.477Z,61.46
2018-03-24T06:19:29.431Z,61.90
2018-03-24T06:21:55.397Z,62.24
2018-03-24T06:24:21.355Z,61.05
2018-03-24T06:26:47.351Z,61.04
2018-03-24T06:29:13.298Z,58.99
2018-03-24T06:31:39.277Z,59.36
2018-03-24T06:34:05.215Z,59.32
2018-03-24T06:36:31.174Z,60.37
2018-03-24T06:38:57.130Z,58.30
2018-03-24T06:41:23.125Z,56.11
2018-03-24T06:43:49.075Z,56.45
2018-03-24T06:46:15.007Z,55.12
2018-03-24T06:48:40.974Z,55.12
2018-03-24T06:51:06.945Z,54.47
2018-03-24T06:53:32.916Z,53.37
2018-03-24T06:55:58.841Z,54.47
2018-03-24T06:58:24.785Z,54.39
2018-03-24T07:00:50.746Z,53.22
2018-03-24T07:03:16.699Z,53.81
2018-03-24T07:05:42.689Z,53.02
2018-03-24T07:08:08.654Z,52.72
2018-03-24T07:10:34.607Z,52.29
2018-03-24T07:13:00.560Z,51.99
2018-03-24T07:15:26.519Z,50.67
2018-03-24T07:17:52.463Z,51.26
2018-03-24T07:20:18.401Z,49.31
2018-03-24T07:22:44.379Z,49.29
2018-03-24T07:25:10.323Z,48.62
2018-03-24T07:27:36.295Z,48.49
2018-03-24T07:30:02.276Z,48.13
2018-03-24T07:32:28.257Z,47.13
2018-03-24T07:34:54.233Z,46.64
2018-03-24T07:37:20.209Z,46.78
2018-03-24T07:39:46.169Z,47.14
2018-03-24T07:42:12.150Z,45.98
2018-03-24T07:44:38.118Z,46.71
2018-03-24T07:47:04.107Z,46.12
2018-03-24T07:49:30.055Z,45.39
2018-03-24T07:51:56.015Z,44.94
2018-03-24T07:54:21.995Z,44.87
2018-03-24T07:56:47.984Z,44.84
2018-03-24T07:59:13.937Z,45.23
2018-03-24T08:01:39.901Z,45.15
2018-03-24T08:04:05.880Z,45.52
2018-03-24T08:06:31.848Z,45.66
2018-03-24T08:08:57.800Z,45.09
2018-03-24T08:11:23.806Z,44.11
2018-03-24T08:13:49.757Z,43.38
2018-03-24T08:16:15.714Z,44.59
2018-03-24T08:18:41.652Z,44.59
2018-03-24T08:21:07.613Z,45.85
2018-03-24T08:23:33.577Z,46.05
2018-03-24T08:25:59.534Z,47.55
2018-03-24T08:28:25.478Z,46.92
2018-03-24T08:30:51.484Z,47.02
2018-03-24T08:33:17.431Z,48.82
2018-03-24T08:35:43.386Z,50.44
2018-03-24T08:38:09.346Z,48.82
2018-03-24T08:40:35.332Z,47.92
2018-03-24T08:43:01.294Z,47.36
2018-03-24T08:45:27.256Z,48.11
2018-03-24T08:47:53.214Z,47.23
2018-03-24T08:50:19.178Z,47.64
2018-03-24T08:52:45.129Z,47.40
2018-03-24T08:55:11.114Z,47.51
2018-03-24T08:57:37.065Z,47.57
2018-03-24T09:00:03.066Z,47.26
2018-03-24T09:02:29.034Z,46.86
2018-03-24T09:04:54.994Z,46.74
2018-03-24T09:07:20.950Z,46.88
2018-03-24T09:09:46.944Z,47.35
2018-03-24T09:12:12.886Z,47.37
2018-03-24T09:14:38.846Z,47.72
2018-03-24T09:17:05.890Z,46.53
2018-03-24T09:19:31.846Z,47.11
2018-03-24T09:21:57.822Z,46.26
2018-03-24T09:24:23.777Z,46.76
2018-03-24T09:26:49.728Z,47.08
2018-03-24T09:29:15.747Z,46.67
2018-03-24T09:31:41.693Z,46.07
2018-03-24T09:34:07.645Z,47.14
2018-03-24T09:36:33.592Z,47.08
2018-03-24T09:38:59.558Z,47.24
2018-03-24T09:41:25.547Z,47.63
2018-03-24T09:43:51.494Z,47.20
2018-03-24T09:46:17.482Z,46.19
2018-03-24T09:48:44.536Z,46.34
2018-03-24T09:51:10.487Z,47.29
2018-03-24T09:53:36.459Z,47.05
2018-03-24T09:56:02.411Z,47.18
2018-03-24T09:58:28.401Z,46.77
2018-03-24T10:00:54.387Z,46.19
2018-03-24T10:03:20.335Z,47.04
2018-03-24T10:05:46.297Z,46.47
2018-03-24T10:08:12.248Z,45.74
2018-03-24T10:10:39.239Z,46.31
2018-03-24T10:13:05.215Z,45.42
2018-03-24T10:15:31.177Z,45.48
2018-03-24T10:17:57.147Z,46.71
2018-03-24T10:20:23.115Z,46.39
2018-03-24T10:22:49.051Z,43.66
2018-03-24T10:25:15.011Z,45.27
2018-03-24T10:27:40.948Z,45.82
2018-03-24T10:30:06.908Z,46.38
2018-03-24T10:32:32.871Z,45.89
2018-03-24T10:34:58.808Z,47.20
2018-03-24T10:37:24.772Z,46.19
2018-03-24T10:39:50.739Z,45.72
2018-03-24T10:42:16.716Z,45.10
2018-03-24T10:44:42.686Z,45.45
2018-03-24T10:47:08.625Z,44.85
2018-03-24T10:49:34.603Z,45.44
2018-03-24T10:52:04.624Z,44.09
2018-03-24T10:54:30.585Z,43.33
2018-03-24T10:56:56.551Z,43.12
2018-03-24T10:59:22.498Z,43.07
2018-03-24T11:01:48.459Z,43.64
2018-03-24T11:04:14.404Z,43.78
2018-03-24T11:06:40.457Z,44.51
2018-03-24T11:09:06.410Z,43.72
2018-03-24T11:11:32.364Z,43.82
2018-03-24T11:13:58.389Z,43.15
2018-03-24T11:16:24.359Z,42.58
2018-03-24T11:18:50.356Z,44.45
2018-03-24T11:21:16.414Z,43.99
2018-03-24T11:23:42.412Z,45.80
2018-03-24T11:26:08.381Z,43.44
2018-03-24T11:28:34.376Z,42.77
2018-03-24T11:31:00.337Z,43.69
2018-03-24T11:33:26.278Z,44.16
2018-03-24T11:35:52.247Z,44.52
2018-03-24T11:38:18.206Z,45.28
2018-03-24T11:40:44.168Z,43.87
2018-03-24T11:43:10.106Z,43.71
2018-03-24T11:45:36.075Z,43.42
2018-03-24T11:48:02.043Z,41.86
2018-03-24T11:50:27.994Z,42.72
2018-03-24T11:52:53.956Z,43.28
2018-03-24T11:55:19.893Z,42.70
2018-03-24T11:57:45.862Z,43.38
2018-03-24T12:00:11.827Z,40.85
2018-03-24T12:02:37.775Z,41.26
2018-03-24T12:05:03.739Z,41.97
2018-03-24T12:07:29.749Z,42.81
2018-03-24T12:09:55.905Z,41.02
2018-03-24T12:12:21.865Z,41.41
2018-03-24T12:14:47.859Z,39.72
2018-03-24T12:17:15.907Z,42.23
2018-03-24T12:19:41.856Z,40.59
2018-03-24T12:22:07.814Z,40.75
2018-03-24T12:24:33.791Z,41.65
2018-03-24T12:26:59.745Z,41.14
2018-03-24T12:29:25.717Z,41.69
2018-03-24T12:31:51.651Z,41.78
2018-03-24T12:34:17.619Z,41.67
2018-03-24T12:36:43.575Z,42.01
2018-03-24T12:39:09.536Z,42.61
2018-03-24T12:41:35.495Z,42.12
2018-03-24T12:44:01.493Z,41.97
2018-03-24T12:46:27.469Z,41.89
2018-03-24T12:48:53.449Z,42.12
2018-03-24T12:51:19.424Z,41.99
2018-03-24T12:53:45.389Z,41.61
2018-03-24T12:56:11.351Z,42.49
2018-03-24T12:58:37.312Z,41.41
2018-03-24T13:01:03.281Z,41.01
2018-03-24T13:03:29.241Z,41.39
2018-03-24T13:05:55.209Z,41.86
2018-03-24T13:08:21.181Z,41.79
2018-03-24T13:10:47.166Z,41.89
2018-03-24T13:13:13.111Z,41.83
2018-03-24T13:15:39.078Z,42.50
2018-03-24T13:18:05.049Z,42.56
2018-03-24T13:20:31.049Z,42.41
2018-03-24T13:22:57.010Z,43.06
2018-03-24T13:25:22.994Z,41.66
2018-03-24T13:27:48.968Z,41.57
2018-03-24T13:30:14.923Z,42.11
2018-03-24T13:32:40.877Z,42.26
2018-03-24T13:35:06.858Z,42.43
2018-03-24T13:37:32.837Z,41.61
2018-03-24T13:39:58.817Z,41.54
2018-03-24T13:42:24.785Z,41.78
2018-03-24T13:44:50.761Z,42.64
2018-03-24T13:47:16.721Z,41.53
2018-03-24T13:49:42.687Z,41.60
2018-03-24T13:52:08.623Z,41.05
2018-03-24T13:54:34.570Z,40.92
2018-03-24T13:57:00.526Z,41.03
2018-03-24T13:59:26.497Z,42.22
2018-03-24T14:01:52.476Z,41.06
2018-03-24T14:04:18.484Z,41.98
2018-03-24T14:06:44.435Z,41.90
2018-03-24T14:09:10.404Z,41.84
2018-03-24T14:11:36.346Z,41.68
2018-03-24T14:14:02.301Z,41.70
2018-03-24T14:16:28.289Z,41.87
2018-03-24T14:18:54.231Z,42.10
2018-03-24T14:21:20.199Z,41.17
2018-03-24T14:23:46.168Z,41.13
2018-03-24T14:26:12.139Z,41.14
2018-03-24T14:28:38.122Z,41.95
2018-03-24T14:31:04.098Z,41.74
2018-03-24T14:33:30.057Z,42.00
2018-03-24T14:35:56.018Z,42.82
2018-03-24T14:38:21.985Z,45.02
2018-03-24T14:40:49.070Z,50.76
2018-03-24T14:43:15.046Z,47.88
2018-03-24T14:45:41.030Z,56.13
2018-03-24T14:48:07.018Z,43.36
2018-03-24T14:50:33.050Z,42.06
2018-03-24T14:52:59.062Z,42.95
2018-03-24T14:55:25.033Z,41.81
2018-03-24T14:57:51.016Z,41.80
2018-03-24T15:00:16.983Z,42.04
2018-03-24T15:02:42.937Z,51.82
2018-03-24T15:05:08.890Z,42.00
2018-03-24T15:07:34.890Z,41.33
2018-03-24T15:10:00.836Z,41.57
2018-03-24T15:12:26.943Z,45.52
2018-03-24T15:14:52.899Z,42.52
2018-03-24T15:17:18.852Z,42.12
2018-03-24T15:19:44.813Z,42.47
2018-03-24T15:22:10.747Z,42.32
2018-03-24T15:24:36.686Z,42.33
2018-03-24T15:27:02.642Z,43.63
2018-03-24T15:29:28.594Z,42.20
2018-03-24T15:31:54.558Z,43.16
2018-03-24T15:34:20.524Z,43.92
2018-03-24T15:36:46.484Z,41.91
2018-03-24T15:39:12.424Z,41.84
2018-03-24T15:41:38.426Z,40.90
2018-03-24T15:44:04.417Z,42.61
2018-03-24T15:46:30.393Z,44.23
2018-03-24T15:48:56.406Z,44.08
2018-03-24T15:51:22.372Z,45.42
2018-03-24T15:53:49.352Z,46.52
2018-03-24T15:56:15.387Z,42.08
2018-03-24T15:58:41.350Z,44.04
2018-03-24T16:01:10.431Z,44.96
2018-03-24T16:03:37.780Z,43.96
2018-03-24T16:06:03.780Z,42.11
2018-03-24T16:08:29.732Z,40.71
2018-03-24T16:10:55.688Z,41.16
2018-03-24T16:13:21.732Z,40.93
2018-03-24T16:15:47.668Z,41.05
2018-03-24T16:18:13.606Z,40.78
2018-03-24T16:20:39.570Z,40.61
2018-03-24T16:23:05.520Z,40.70
2018-03-24T16:25:31.456Z,40.50
2018-03-24T16:27:57.486Z,40.79
2018-03-24T16:30:23.457Z,40.77
2018-03-24T16:32:49.444Z,40.98
2018-03-24T16:35:15.400Z,41.34
2018-03-24T16:37:41.362Z,41.69
2018-03-24T16:40:07.308Z,40.72
2018-03-24T16:42:33.282Z,41.82
2018-03-24T16:44:59.230Z,41.50
2018-03-24T16:47:25.192Z,40.57
2018-03-24T16:49:51.147Z,41.79
2018-03-24T16:52:17.086Z,41.86
2018-03-24T16:54:43.023Z,41.42
2018-03-24T16:57:09.051Z,41.75
2018-03-24T16:59:35.006Z,41.77
2018-03-24T17:02:00.967Z,41.36
2018-03-24T17:04:26.910Z,42.58
2018-03-24T17:06:52.861Z,41.63
2018-03-24T17:09:18.799Z,41.77
2018-03-24T17:11:44.767Z,42.20
2018-03-24T17:14:10.707Z,42.19
2018-03-24T17:16:36.659Z,41.63
2018-03-24T17:19:02.622Z,41.86
2018-03-24T17:21:28.582Z,41.40
2018-03-24T17:23:54.527Z,41.93
2018-03-24T17:26:20.472Z,42.26
2018-03-24T17:28:46.426Z,42.02
2018-03-24T17:31:12.681Z,42.05
2018-03-24T17:33:38.712Z,43.51
2018-03-24T17:36:05.749Z,43.04
2018-03-24T17:38:31.695Z,42.82
2018-03-24T17:40:57.650Z,43.91
2018-03-24T17:43:23.621Z,43.37
2018-03-24T17:45:49.649Z,42.91
2018-03-24T17:48:15.736Z,43.42
2018-03-24T17:50:41.650Z,43.88
2018-03-24T17:53:07.632Z,43.37
2018-03-24T17:55:33.591Z,43.02
2018-03-24T17:57:59.532Z,43.36
2018-03-24T18:00:25.501Z,43.25
2018-03-24T18:02:51.523Z,43.77
2018-03-24T18:05:17.565Z,43.84
2018-03-24T18:07:43.519Z,43.75
2018-03-24T18:10:09.500Z,43.04
2018-03-24T18:12:35.439Z,43.33
2018-03-24T18:15:01.372Z,42.95
2018-03-24T18:17:27.325Z,43.28
2018-03-24T18:19:55.294Z,43.25
2018-03-24T18:22:21.293Z,42.99
2018-03-24T18:24:47.246Z,43.48
2018-03-24T18:27:13.192Z,42.94
2018-03-24T18:29:39.302Z,42.76
2018-03-24T18:32:05.267Z,42.80
2018-03-24T18:34:31.230Z,43.24
2018-03-24T18:36:57.183Z,43.69
2018-03-24T18:39:23.119Z,43.32
2018-03-24T18:41:49.051Z,43.32
2018-03-24T18:44:14.987Z,43.17
2018-03-24T18:46:40.940Z,43.17
2018-03-24T18:49:06.876Z,42.92
2018-03-24T18:51:32.810Z,43.28
2018-03-24T18:53:58.765Z,43.84
2018-03-24T18:56:24.710Z,44.06
2018-03-24T18:58:50.655Z,43.65
2018-03-24T19:01:16.586Z,43.95
2018-03-24T19:03:42.531Z,44.17
2018-03-24T19:06:08.538Z,44.60
2018-03-24T19:08:34.475Z,44.07
2018-03-24T19:11:00.478Z,45.19
2018-03-24T19:13:26.430Z,44.89
2018-03-24T19:15:52.398Z,45.61
2018-03-24T19:18:18.346Z,45.11
2018-03-24T19:20:45.386Z,45.89
2018-03-24T19:23:11.320Z,44.82
2018-03-24T19:25:37.382Z,45.54
2018-03-24T19:28:03.324Z,45.09
2018-03-24T19:30:29.286Z,44.89
2018-03-24T19:32:55.346Z,45.69
2018-03-24T19:35:21.289Z,45.87
2018-03-24T19:37:47.240Z,46.66
2018-03-24T19:40:13.225Z,46.74
2018-03-24T19:42:39.180Z,46.58
2018-03-24T19:45:05.135Z,46.43
2018-03-24T19:47:31.110Z,45.28
2018-03-24T19:49:58.448Z,45.54
2018-03-24T19:52:24.563Z,47.05
2018-03-24T19:54:50.590Z,46.11
2018-03-24T19:57:16.598Z,47.18
2018-03-24T19:59:42.606Z,46.32
2018-03-24T20:02:10.556Z,47.00
2018-03-24T20:04:36.622Z,47.00
2018-03-24T20:07:02.605Z,46.78
2018-03-24T20:09:28.645Z,46.59
2018-03-24T20:11:57.289Z,46.66
2018-03-24T20:14:23.885Z,46.93
2018-03-24T20:16:50.907Z,46.39
2018-03-24T20:19:16.955Z,47.15
2018-03-24T20:21:42.978Z,48.78
2018-03-24T20:24:08.980Z,48.52
2018-03-24T20:26:35.017Z,47.89
2018-03-24T20:29:01.042Z,47.08
2018-03-24T20:31:28.062Z,47.28
2018-03-24T20:33:54.114Z,46.18
2018-03-24T20:36:20.108Z,46.73
2018-03-24T20:38:46.158Z,46.67
2018-03-24T20:41:12.189Z,46.32
2018-03-24T20:43:38.142Z,46.21
2018-03-24T20:46:04.100Z,46.92
2018-03-24T20:48:30.056Z,47.34
2018-03-24T20:50:56.018Z,47.81
2018-03-24T20:53:21.976Z,48.13
2018-03-24T20:55:47.954Z,48.26
2018-03-24T20:58:13.894Z,48.84
2018-03-24T21:00:39.850Z,49.11
2018-03-24T21:03:05.824Z,49.59
2018-03-24T21:05:31.802Z,49.72
2018-03-24T21:07:57.783Z,52.84
2018-03-24T21:10:23.738Z,52.04
2018-03-24T21:12:49.679Z,51.32
2018-03-24T21:15:15.624Z,52.35
2018-03-24T21:17:41.570Z,53.61
2018-03-24T21:20:07.504Z,53.18
2018-03-24T21:22:34.491Z,53.50
2018-03-24T21:25:01.587Z,55.16
2018-03-24T21:27:27.492Z,52.88
2018-03-24T21:29:53.438Z,56.27
2018-03-24T21:32:19.398Z,56.55
2018-03-24T21:34:45.426Z,53.56
2018-03-24T21:37:11.403Z,53.45
2018-03-24T21:39:38.393Z,54.54
2018-03-24T21:42:04.364Z,55.91
2018-03-24T21:44:30.332Z,55.63
2018-03-24T21:46:56.305Z,56.30
2018-03-24T21:49:22.241Z,54.59
2018-03-24T21:51:48.241Z,55.33
2018-03-24T21:54:14.206Z,57.85
2018-03-24T21:56:40.155Z,55.89
2018-03-24T21:59:06.136Z,58.72
2018-03-24T22:01:32.107Z,57.10
2018-03-24T22:03:58.044Z,57.69
2018-03-24T22:06:23.996Z,56.44
2018-03-24T22:08:49.962Z,56.05
2018-03-24T22:11:15.957Z,55.53
2018-03-24T22:13:41.860Z,56.98
2018-03-24T22:16:07.836Z,53.76
2018-03-24T22:18:33.812Z,52.53
2018-03-24T22:20:59.780Z,54.25
2018-03-24T22:23:25.734Z,55.54
2018-03-24T22:25:51.705Z,56.54
2018-03-24T22:28:17.647Z,57.68
2018-03-24T22:30:43.621Z,54.84
2018-03-24T22:33:09.560Z,55.64
2018-03-24T22:35:35.505Z,59.00
2018-03-24T22:38:01.466Z,58.26
2018-03-24T22:40:27.425Z,54.82
2018-03-24T22:42:53.513Z,54.13
2018-03-24T22:45:19.494Z,55.78
2018-03-24T22:47:45.445Z,55.23
2018-03-24T22:50:11.413Z,57.30
2018-03-24T22:52:37.339Z,57.11
2018-03-24T22:55:03.298Z,58.87
2018-03-24T22:57:29.314Z,59.69
2018-03-24T22:59:55.272Z,59.53
2018-03-24T23:02:21.227Z,59.20
2018-03-24T23:04:47.346Z,62.11
2018-03-24T23:07:13.292Z,62.14
2018-03-24T23:09:39.279Z,58.69
2018-03-24T23:12:05.232Z,59.17
2018-03-24T23:14:31.208Z,60.76
2018-03-24T23:16:57.140Z,59.80
2018-03-24T23:19:23.080Z,60.20
2018-03-24T23:21:49.030Z,60.08
2018-03-24T23:24:14.970Z,62.06
2018-03-24T23:26:40.948Z,60.61
2018-03-24T23:29:06.893Z,58.30
2018-03-24T23:31:32.825Z,56.83
2018-03-24T23:33:58.785Z,57.75
2018-03-24T23:36:24.731Z,58.58
2018-03-24T23:38:50.659Z,56.25
2018-03-24T23:41:16.584Z,54.96
2018-03-24T23:43:42.565Z,54.08
2018-03-24T23:46:08.503Z,58.38
2018-03-24T23:48:34.439Z,60.32
2018-03-24T23:51:00.373Z,62.98
2018-03-24T23:53:26.319Z,60.52
2018-03-24T23:55:52.258Z,59.16
2018-03-24T23:58:18.206Z,62.41
